KPLR/PLR METAR and TAF weather

Enter ICAO airport designator
Station Type Date Time Source
KPLR METAR 2021/06/22 23:35 UTC NOAA

KPLR 222335Z AUTO 33003KT 10SM BKN048 26/16 A2999 RMK A01


Station Type Date Time Source
KPLR Decoded METAR 2021/06/22 23:35 UTC NOAA

Station name not available
Jun 22, 2021 - 07:35 PM EDT / 2021.06.22 2335 UTC
Wind: from the NNW (330 degrees) at 3 MPH (3 KT):0
Visibility: 10 mile(s):0
Sky conditions: mostly cloudy
Temperature: 78 F (26 C)
Dew Point: 60 F (16 C)
Relative Humidity: 54%
Pressure (altimeter): 29.99 in. Hg (1015 hPa)
ob: KPLR 222335Z AUTO 33003KT 10SM BKN048 26/16 A2999 RMK A01
cycle: 23

Station Type Date Time Source
KPLR TAF UTC NOAA

Error!

Example: see airport list